Airport ID:K63S
Update Time (UTC):19/04/2021 13:00
Wind Speed (Knots):5
Wind Direction (Magnetic):350
Temperature (°C):4
Dew Point (°C):-11
Humidity (%):33
Altimeter (inHg):30.38
Density Altitude (Feet):
Visibility:10+
Clouds (Hundreds of feet):CLR
Present Weather:
METAR:METAR K63S 191255Z AUTO VRB04KT 10SM CLR 04/M11 A3038 RMK A01

The data displayed is for advisory purposes only and is not to be used for flight planning or operations.